x

Albatross Bank - 104nm South Of Kodiak, Ak (46078) Wave Buoy

7:50pm - Mon 28th Jul 2014 All times are AKDT. -8 hours from GMT.

  • Sig Wave height 2.6ft
  • Swell Direction
  • Peak Period 15s
  • Average Period 5s
  • Wind
    16mph, 18mph gusts
  • Sea Temp 58°f
  • Air Temp 57°f
  • Sea Pressure 1016.2mb
  • Albatross Bank - 104nm South Of Kodiak, Ak
  • Albatross Bank - 104nm South Of Kodiak, Ak

More Historic Weather Station data

Upgrade to MSW Pro to gain access to the past 30 days of data for over 8000 Wavebouys and Weather Stations around the globe.

Join Pro

Comparision Forecast

View Surf forecast
   
Mon 07/28 7:50pm 2.5ft 15s 5s 16 18 mph 1016.2mb 58f 57f
6:50pm 2.5ft 14s 5s 16 18 mph 1016.8mb 58f 57f
5:50pm 2ft 7s 5s 13
mph
1017.3mb 58f 57f
4:50pm 2ft 15s 6s 11
mph
1017.6mb 58f 57f
3:50pm 2ft 8s 6s 9 11 mph 1017.7mb 59f 57f
2:50pm 2ft 16s 6s 9 11 mph 1018mb 59f 57f
1:50pm 2ft 12s 6s 7 9 mph 1018.1mb 59f 58f
12:50pm 2ft 15s 6s 4
mph
1018.6mb 59f 57f
11:50am 2.5ft 11s 6s 4
mph
1018.9mb 58f 57f
10:50am 2.5ft 7s 6s 7 9 mph 1019.1mb 58f 57f
9:50am 2.5ft 6s 6s 4
mph
1018.7mb 58f 57f
8:50am 2.5ft 7s 6s 7
mph
1018.7mb 58f 57f
7:50am 2.5ft 6s 5s 4 7 mph 1018.5mb 58f 57f
6:50am 2.5ft 16s 5s 7
mph
1018.5mb 58f 57f
5:50am 2.5ft 6s 5s 7
mph
1018.2mb 58f 57f
4:50am 2.5ft 16s 6s 7
mph
1018mb 58f 57f
3:50am 2.5ft 8s 6s 4 7 mph 1017.9mb 58f 57f
2:50am 2.5ft 8s 6s 4 7 mph 1017.7mb 58f 57f
1:50am 2.5ft 17s 6s 7
mph
1017.6mb 58f 57f
12:50am 2.5ft 8s 6s 7
mph
1017.3mb 58f 57f
Sun 07/27 11:50pm 2.5ft 6s 6s 4 7 mph 1017.2mb 58f 57f
10:50pm 2.5ft 9s 6s 4
mph
1016.9mb 58f 57f
9:50pm 2.5ft 6s 5s 4 7 mph 1016.5mb 58f 57f
8:50pm 2.5ft 6s 5s 9
mph
1016.1mb 58f 57f
7:50pm 2.5ft 5s 5s 9
mph
1015.7mb 58f 57f
5:50pm 2.5ft 7s 5s 11 13 mph 1015.4mb 58f 57f
4:50pm 2.5ft 7s 5s 9 11 mph 1015.3mb 58f 57f
3:50pm 2.5ft 7s 6s 11 13 mph 1015.1mb 58f 57f
2:50pm 2.5ft 7s 6s 9 11 mph 1014.9mb 58f 57f
1:50pm 2.5ft 7s 6s 9 11 mph 1014.7mb 58f 56f
12:50pm 2.5ft 7s 6s 11
mph
1014.8mb 58f 57f
11:50am 2.5ft 7s 6s 11 13 mph 1014.7mb 58f 56f
10:50am 2.5ft 17s 6s 9 11 mph 1014.7mb 58f 57f
9:50am 2.5ft 7s 6s 7
mph
1014.5mb 58f 57f
8:50am 2.5ft 7s 6s 4 7 mph 1014.6mb 58f 56f
7:50am 2.5ft 7s 6s 7 9 mph 1014.4mb 58f 56f
6:50am 2.5ft 7s 6s 7 9 mph 1014.2mb 58f 56f
5:50am 2.5ft 7s 6s 9 11 mph 1014mb 58f 56f
4:50am 2.5ft 7s 6s 9 11 mph 1013.8mb 58f 57f
3:50am 3ft 7s 6s 9 11 mph 1013.7mb 58f 57f
2:50am 2.5ft 7s 6s 7 9 mph 1013.8mb 58f 57f
1:50am 2.5ft 7s 6s 4
mph
1014mb 58f 57f
12:50am 2.5ft 7s 6s 4
mph
1014mb 58f 56f
Sat 07/26 11:50pm 2.5ft 8s 6s 4 7 mph 1013.9mb 58f 57f
10:50pm 2.5ft 8s 6s 4
mph
1013.8mb 59f 57f
9:50pm 2.5ft 8s 6s 2 4 mph 1013.3mb 59f 57f
8:50pm 2.5ft 8s 6s 4 7 mph 1013.3mb 59f 57f
7:50pm 2.5ft 8s 6s 4 7 mph 1013.2mb 59f 58f
6:50pm 3ft 7s 6s 7
mph
1013.2mb 60f 57f
5:50pm 2.5ft 8s 6s 7
mph
1013.3mb 60f 57f
4:50pm 2.5ft 7s 6s 4 7 mph 1013.3mb 60f 57f
3:50pm 3ft 8s 6s 4 7 mph 1013mb 60f 57f
2:50pm 3ft 7s 6s 2 4 mph 1013mb 59f 57f
1:50pm 3.5ft 8s 6s 2 4 mph 1013mb 58f 56f
12:50pm 3.5ft 8s 6s 7
mph
1013.1mb 57f 56f
11:50am 3.5ft 8s 6s 9
mph
1013.1mb 57f 56f
10:50am 3.5ft 8s 6s 9 11 mph 1013.1mb 57f 56f
9:50am 3.5ft 8s 6s 9 11 mph 1013.1mb 57f 56f
8:50am 3ft 8s 6s 11
mph
1013mb 57f 55f
7:50am 3.5ft 8s 6s 9 11 mph 1012.9mb 57f 56f
6:50am 3.5ft 8s 6s 9 11 mph 1012.6mb 57f 56f
5:50am 3.5ft 7s 6s 11
mph
1012.4mb 57f 56f
4:50am 3.5ft 8s 6s 9 11 mph 1012.1mb 57f 56f
3:50am 3.5ft 8s 6s 11
mph
1012mb 57f 56f
2:50am 3.5ft 7s 6s 11
mph
1012.1mb 57f 56f
1:50am 4ft 7s 6s 9 11 mph 1012mb 57f 56f
12:50am 4ft 8s 6s 11 13 mph 1011.7mb 57f 57f
Fri 07/25 11:50pm 4ft 7s 6s 9 11 mph 1011.6mb 58f 57f
10:50pm 3.5ft 7s 6s 9 11 mph 1011.3mb 58f 57f
9:50pm 4ft 7s 6s 9 11 mph 1010.9mb 58f 57f
8:50pm 3.5ft 8s 6s 7 9 mph 1010.6mb 58f 57f
7:50pm 3.5ft 7s 6s 4
mph
1010.5mb 58f 56f
6:50pm 3.5ft 7s 6s 7 9 mph 1010.3mb 58f 56f
5:50pm 3.5ft 8s 6s 9 11 mph 1010.2mb 57f 56f
4:50pm 3.5ft 7s 6s 11 16 mph 1010mb 57f 56f
3:50pm 3.5ft 8s 6s 11 13 mph 1010mb 57f 56f
2:50pm 3.5ft 7s 6s 9 11 mph 1009.9mb 57f 56f
1:50pm 3.5ft 7s 6s 11 13 mph 1009.9mb 57f 55f
12:50pm 4ft 8s 6s 9 11 mph 1009.8mb 57f 55f
11:50am 4.5ft 8s 6s 11 13 mph 1009.8mb 56f 55f
10:50am 4.5ft 7s 6s 13 16 mph 1009.7mb 56f 55f
9:50am 4ft 8s 6s 13 16 mph 1009.6mb 56f 55f
8:50am 3.5ft 8s 6s 13 16 mph 1009.5mb 56f 55f
7:50am 4ft 8s 6s 16 18 mph 1009.4mb 56f 55f
6:50am 4ft 8s 6s 11
mph
1009.5mb 56f 55f
5:50am 3.5ft 8s 6s 11 13 mph 1009.7mb 56f 55f